Time;durP1;ratioP1;P1;durP2;ratioP2;P2;SDS_P1;SDS_P2;PMS_P1;PMS_P2;Temp;Humidity;BMP_temperature;BMP_pressure;BME280_temperature;BME280_humidity;BME280_pressure;Samples;Min_cycle;Max_cycle;Signal;HPM_P1;HPM_P2
2024/01/17 00:00:17;;;;;;;7.68;3.30;;;2.40;99.90;;;;;;5030816;28;20052;-45
2024/01/17 00:02:42;;;;;;;10.10;3.47;;;2.50;99.90;;;;;;5030816;28;20045;-47
2024/01/17 00:05:11;;;;;;;7.32;3.40;;;2.50;99.90;;;;;;5030914;28;20063;-48
2024/01/17 00:07:37;;;;;;;9.15;3.85;;;2.50;99.90;;;;;;5030765;28;20025;-52
2024/01/17 00:10:04;;;;;;;5.95;3.20;;;2.40;99.90;;;;;;5021629;28;20430;-47
2024/01/17 00:12:30;;;;;;;9.55;3.20;;;2.30;99.90;;;;;;5030189;28;20120;-48
2024/01/17 00:14:55;;;;;;;7.15;3.13;;;2.30;99.90;;;;;;5030392;28;20392;-45
2024/01/17 00:17:21;;;;;;;4.05;2.28;;;2.30;99.90;;;;;;5030806;28;20047;-48
2024/01/17 00:19:47;;;;;;;7.15;3.38;;;2.30;99.90;;;;;;5030933;28;20022;-56
2024/01/17 00:22:16;;;;;;;5.00;2.70;;;2.30;99.90;;;;;;5030382;28;20036;-48
2024/01/17 00:24:41;;;;;;;5.75;2.30;;;2.30;99.90;;;;;;5030564;28;20112;-55
2024/01/17 00:27:08;;;;;;;4.72;2.42;;;2.30;99.90;;;;;;5030364;28;20105;-53
2024/01/17 00:29:34;;;;;;;6.13;2.80;;;2.40;99.90;;;;;;5030476;28;20378;-49
2024/01/17 00:32:00;;;;;;;6.18;2.50;;;2.50;99.90;;;;;;5030600;28;20100;-48
2024/01/17 00:34:26;;;;;;;4.70;2.25;;;2.50;99.90;;;;;;5029417;28;20036;-51
2024/01/17 00:36:52;;;;;;;5.50;2.88;;;2.50;99.90;;;;;;5030447;28;20037;-48
2024/01/17 00:39:18;;;;;;;4.68;2.50;;;2.60;99.90;;;;;;5030622;28;20064;-45
2024/01/17 00:41:45;;;;;;;5.05;2.45;;;2.60;99.90;;;;;;5030477;28;20030;-48
2024/01/17 00:44:15;;;;;;;7.35;2.67;;;2.60;99.90;;;;;;5040513;28;20107;-48
2024/01/17 00:46:41;;;;;;;6.20;2.42;;;2.70;99.90;;;;;;5050204;28;20033;-47
2024/01/17 00:49:06;;;;;;;6.80;2.60;;;2.70;99.90;;;;;;5050335;28;20438;-51
2024/01/17 00:51:32;;;;;;;4.43;2.50;;;2.60;99.90;;;;;;5050102;28;20064;-47
2024/01/17 00:53:58;;;;;;;4.18;2.33;;;2.60;99.90;;;;;;5050178;28;20034;-46
2024/01/17 00:56:23;;;;;;;4.72;2.38;;;2.50;99.90;;;;;;5050170;28;20028;-51
2024/01/17 00:58:49;;;;;;;4.30;2.05;;;2.50;99.90;;;;;;5050198;28;20029;-48
2024/01/17 01:01:15;;;;;;;5.85;2.72;;;2.50;99.90;;;;;;5050132;28;20037;-56
2024/01/17 01:03:41;;;;;;;6.80;2.92;;;2.50;99.90;;;;;;5049993;28;20037;-47
2024/01/17 01:06:06;;;;;;;4.80;2.30;;;2.50;99.90;;;;;;5050234;28;20056;-47
2024/01/17 01:08:32;;;;;;;8.18;2.80;;;2.40;99.90;;;;;;5049853;28;20045;-48
2024/01/17 01:10:58;;;;;;;8.13;2.45;;;2.40;99.90;;;;;;5049894;28;20052;-50
2024/01/17 01:13:23;;;;;;;4.75;2.33;;;2.40;99.90;;;;;;5050267;28;20032;-51
2024/01/17 01:15:49;;;;;;;4.03;2.38;;;2.30;99.90;;;;;;5049668;28;20415;-52
2024/01/17 01:18:15;;;;;;;3.55;2.05;;;2.30;99.90;;;;;;5050067;28;20056;-47
2024/01/17 01:20:41;;;;;;;5.55;1.90;;;2.30;99.90;;;;;;5049857;28;20079;-52
2024/01/17 01:23:07;;;;;;;5.70;2.38;;;2.30;99.90;;;;;;5049922;28;20028;-48
2024/01/17 01:25:33;;;;;;;5.45;2.30;;;2.30;99.90;;;;;;5049524;28;20081;-47
2024/01/17 01:27:58;;;;;;;3.53;2.03;;;2.30;99.90;;;;;;5049827;28;20029;-57
2024/01/17 01:30:24;;;;;;;7.68;2.60;;;2.20;99.90;;;;;;5049981;28;20040;-49
2024/01/17 01:32:50;;;;;;;6.38;2.05;;;2.20;99.90;;;;;;5049610;28;20437;-49
2024/01/17 01:35:15;;;;;;;4.72;2.30;;;2.20;99.90;;;;;;5049745;28;20551;-49
2024/01/17 01:37:41;;;;;;;3.20;1.92;;;2.10;99.90;;;;;;5049628;28;20048;-45
2024/01/17 01:40:07;;;;;;;4.22;2.10;;;2.10;99.90;;;;;;5049620;28;20056;-47
2024/01/17 01:42:34;;;;;;;5.97;2.35;;;2.10;99.90;;;;;;5049319;28;20384;-45
2024/01/17 01:45:00;;;;;;;4.40;2.20;;;2.10;99.90;;;;;;5049634;28;20110;-49
2024/01/17 01:47:26;;;;;;;6.80;2.47;;;2.00;99.90;;;;;;5053176;28;20079;-49
2024/01/17 01:49:52;;;;;;;6.88;2.15;;;2.00;99.90;;;;;;5053206;28;20025;-50
2024/01/17 01:52:20;;;;;;;6.00;2.75;;;1.90;99.90;;;;;;5053260;28;20503;-48
2024/01/17 01:54:46;;;;;;;5.93;2.40;;;1.90;99.90;;;;;;5052951;28;20037;-47
2024/01/17 01:57:13;;;;;;;3.67;2.22;;;1.80;99.90;;;;;;5053009;28;20151;-46
2024/01/17 01:59:39;;;;;;;7.28;2.55;;;1.80;99.90;;;;;;5053052;28;20499;-45
2024/01/17 02:02:05;;;;;;;6.28;2.97;;;1.70;99.90;;;;;;5052740;28;20107;-49
2024/01/17 02:04:34;;;;;;;5.03;2.60;;;1.70;99.90;;;;;;5051788;28;20035;-51
2024/01/17 02:07:01;;;;;;;8.32;2.70;;;1.70;99.90;;;;;;5052684;28;20035;-52
2024/01/17 02:09:29;;;;;;;10.70;3.08;;;1.70;99.90;;;;;;5052777;28;20079;-49
2024/01/17 02:11:57;;;;;;;7.97;2.85;;;1.80;99.90;;;;;;5052568;28;20510;-48
2024/01/17 02:14:24;;;;;;;5.57;2.55;;;1.80;99.90;;;;;;5052848;28;20041;-49
2024/01/17 02:16:50;;;;;;;4.80;2.70;;;1.70;99.90;;;;;;5051353;28;20025;-52
2024/01/17 02:19:19;;;;;;;5.30;2.60;;;1.70;99.90;;;;;;5052654;28;20028;-50
2024/01/17 02:21:45;;;;;;;5.78;2.78;;;1.70;99.90;;;;;;5052709;28;20029;-53
2024/01/17 02:24:23;;;;;;;4.03;2.53;;;1.60;99.90;;;;;;5052322;28;20416;-48
2024/01/17 02:26:49;;;;;;;7.55;2.60;;;1.50;99.90;;;;;;5052659;28;20028;-51
2024/01/17 02:29:15;;;;;;;4.68;2.42;;;1.50;99.90;;;;;;5052348;28;20013;-52
2024/01/17 02:31:41;;;;;;;7.05;2.42;;;1.50;99.90;;;;;;5052689;28;20464;-49
2024/01/17 02:34:07;;;;;;;8.27;3.10;;;1.40;99.90;;;;;;5052098;28;20383;-47
2024/01/17 02:36:33;;;;;;;6.60;3.15;;;1.40;99.90;;;;;;5052446;28;20035;-51
2024/01/17 02:38:58;;;;;;;5.53;2.75;;;1.40;99.90;;;;;;5052334;28;20025;-46
2024/01/17 02:41:24;;;;;;;7.07;3.10;;;1.40;99.90;;;;;;5052221;28;20017;-52
2024/01/17 02:43:49;;;;;;;4.57;2.63;;;1.40;99.90;;;;;;5052139;28;20029;-49
2024/01/17 02:46:15;;;;;;;9.77;3.20;;;1.40;99.90;;;;;;5052155;28;20041;-45
2024/01/17 02:48:41;;;;;;;5.07;2.58;;;1.50;99.90;;;;;;5052016;28;20053;-45
2024/01/17 02:51:06;;;;;;;5.30;2.42;;;1.40;99.90;;;;;;5051931;28;20033;-45
2024/01/17 02:53:32;;;;;;;4.25;2.45;;;1.40;99.90;;;;;;5051675;28;20040;-50
2024/01/17 02:55:57;;;;;;;5.03;2.80;;;1.40;99.90;;;;;;5052074;28;20090;-53
2024/01/17 02:58:23;;;;;;;5.85;3.08;;;1.40;99.90;;;;;;5050885;28;20092;-45
2024/01/17 03:00:49;;;;;;;6.28;2.90;;;1.30;99.90;;;;;;5051812;28;20031;-46
2024/01/17 03:03:15;;;;;;;6.50;3.30;;;1.30;99.90;;;;;;5051938;28;20025;-45
2024/01/17 03:05:40;;;;;;;14.25;3.40;;;1.30;99.90;;;;;;5051658;28;20048;-51
2024/01/17 03:08:07;;;;;;;5.82;2.80;;;1.30;99.90;;;;;;5051707;28;20025;-52
2024/01/17 03:10:33;;;;;;;6.32;3.22;;;1.30;99.90;;;;;;5051707;28;20028;-52
2024/01/17 03:12:59;;;;;;;6.28;3.00;;;1.40;99.90;;;;;;5051747;28;20029;-51
2024/01/17 03:15:25;;;;;;;8.30;3.42;;;1.30;99.90;;;;;;5051493;28;20114;-55
2024/01/17 03:17:50;;;;;;;9.07;3.33;;;1.30;99.90;;;;;;5050996;28;20035;-47
2024/01/17 03:20:17;;;;;;;5.63;2.95;;;1.30;99.90;;;;;;5051141;28;20029;-46
2024/01/17 03:22:43;;;;;;;8.98;3.88;;;1.30;99.90;;;;;;5051262;28;20029;-51
2024/01/17 03:25:08;;;;;;;6.65;3.50;;;1.30;99.90;;;;;;5051842;28;20070;-53
2024/01/17 03:27:35;;;;;;;5.75;2.95;;;1.30;99.90;;;;;;5051152;28;20476;-53
2024/01/17 03:30:02;;;;;;;9.48;3.58;;;1.30;99.90;;;;;;5051690;28;20032;-45
2024/01/17 03:32:28;;;;;;;5.07;2.55;;;1.30;99.90;;;;;;5042906;28;20074;-51
2024/01/17 03:34:55;;;;;;;9.73;3.42;;;1.30;99.90;;;;;;5051051;28;20033;-47
2024/01/17 03:37:22;;;;;;;8.82;3.30;;;1.30;99.90;;;;;;5051081;28;20467;-50
2024/01/17 03:39:48;;;;;;;8.57;2.95;;;1.40;99.90;;;;;;5051000;28;20120;-47
2024/01/17 03:42:16;;;;;;;8.75;3.50;;;1.50;99.90;;;;;;5051076;28;20075;-50
2024/01/17 03:44:43;;;;;;;4.45;2.65;;;1.50;99.90;;;;;;5051035;28;20419;-49
2024/01/17 03:47:10;;;;;;;6.03;3.60;;;1.50;99.90;;;;;;5050574;28;20033;-45
2024/01/17 03:49:35;;;;;;;10.57;3.58;;;1.50;99.90;;;;;;5051103;28;20056;-54
2024/01/17 03:52:01;;;;;;;7.07;3.35;;;1.40;99.90;;;;;;5051002;28;20468;-51
2024/01/17 03:54:27;;;;;;;8.88;3.17;;;1.40;99.90;;;;;;5050971;28;20090;-49
2024/01/17 03:56:52;;;;;;;6.15;3.30;;;1.40;99.90;;;;;;5050710;28;20029;-50
2024/01/17 03:59:18;;;;;;;7.90;3.80;;;1.40;99.90;;;;;;5050796;28;20029;-47
2024/01/17 04:01:44;;;;;;;6.10;3.20;;;1.30;99.90;;;;;;5050562;28;20049;-47
2024/01/17 04:04:11;;;;;;;6.05;3.42;;;1.30;99.90;;;;;;5050795;28;20029;-46
2024/01/17 04:06:37;;;;;;;11.55;3.50;;;1.30;99.90;;;;;;5050686;28;20029;-55
2024/01/17 04:09:03;;;;;;;6.07;2.95;;;1.30;99.90;;;;;;5050240;28;20033;-49
2024/01/17 04:11:28;;;;;;;6.25;2.85;;;1.20;99.90;;;;;;5050674;28;20020;-47
2024/01/17 04:13:54;;;;;;;5.30;2.83;;;1.20;99.90;;;;;;5050231;28;20082;-50
2024/01/17 04:16:20;;;;;;;6.03;3.30;;;1.30;99.90;;;;;;5050526;28;20032;-48
2024/01/17 04:18:46;;;;;;;6.15;3.08;;;1.20;99.90;;;;;;5050592;28;20037;-51
2024/01/17 04:21:21;;;;;;;5.95;3.10;;;1.20;99.90;;;;;;5050349;28;20025;-46
2024/01/17 04:23:49;;;;;;;6.82;3.08;;;1.20;99.90;;;;;;5050502;28;20025;-48
2024/01/17 04:26:23;;;;;;;9.25;2.85;;;1.20;99.90;;;;;;5050170;28;20017;-48
2024/01/17 04:28:54;;;;;;;7.05;2.83;;;1.20;99.90;;;;;;5050320;28;20021;-47
2024/01/17 04:31:28;;;;;;;10.15;3.13;;;1.20;99.90;;;;;;5050131;28;20466;-46
2024/01/17 04:33:54;;;;;;;6.55;2.65;;;1.10;99.90;;;;;;5050225;28;20537;-46
2024/01/17 04:36:21;;;;;;;6.38;3.38;;;1.10;99.90;;;;;;5050091;28;20404;-52
2024/01/17 04:38:47;;;;;;;6.40;2.80;;;1.10;99.90;;;;;;5050425;28;20017;-46
2024/01/17 04:41:15;;;;;;;6.80;2.80;;;1.10;99.90;;;;;;5049975;28;20083;-51
2024/01/17 04:43:41;;;;;;;4.95;2.78;;;1.10;99.90;;;;;;5050162;28;20025;-48
2024/01/17 04:46:12;;;;;;;8.95;3.92;;;1.10;99.90;;;;;;5050078;28;20028;-46
2024/01/17 04:48:41;;;;;;;7.00;2.67;;;1.00;99.90;;;;;;5050069;28;20037;-46
2024/01/17 04:51:09;;;;;;;8.45;3.17;;;1.00;99.90;;;;;;5050265;28;20024;-54
2024/01/17 04:53:37;;;;;;;5.60;2.78;;;1.00;99.90;;;;;;5049858;28;20483;-51
2024/01/17 04:56:06;;;;;;;7.35;3.58;;;1.00;99.90;;;;;;5049864;28;20132;-52
2024/01/17 04:58:34;;;;;;;7.07;3.47;;;1.10;99.90;;;;;;5049882;28;20013;-46
2024/01/17 05:01:00;;;;;;;5.70;3.03;;;1.10;99.90;;;;;;5049887;28;20053;-47
2024/01/17 05:03:27;;;;;;;8.55;3.17;;;1.10;99.90;;;;;;5049873;28;20392;-48
2024/01/17 05:05:53;;;;;;;13.13;4.05;;;1.00;99.90;;;;;;5049952;28;20035;-46
2024/01/17 05:08:19;;;;;;;10.50;3.90;;;1.10;99.90;;;;;;5049978;28;20044;-55
2024/01/17 05:10:45;;;;;;;5.95;2.80;;;1.10;99.90;;;;;;5049703;28;20017;-49
2024/01/17 05:13:12;;;;;;;11.07;3.65;;;1.20;99.90;;;;;;5050032;28;20120;-46
2024/01/17 05:15:39;;;;;;;5.93;3.65;;;1.20;99.90;;;;;;5049667;28;20029;-46
2024/01/17 05:18:06;;;;;;;8.90;3.50;;;1.20;99.90;;;;;;5049791;28;20025;-46
2024/01/17 05:20:32;;;;;;;7.07;3.35;;;1.30;99.90;;;;;;5050246;28;20037;-47
2024/01/17 05:22:59;;;;;;;11.70;4.07;;;1.20;99.90;;;;;;5053816;28;20124;-49
2024/01/17 05:25:24;;;;;;;11.23;3.78;;;1.30;99.90;;;;;;5053676;28;20068;-51
2024/01/17 05:27:52;;;;;;;7.22;3.50;;;1.30;99.90;;;;;;5053766;28;20372;-46
2024/01/17 05:30:24;;;;;;;6.35;3.30;;;1.30;99.90;;;;;;5053643;28;20031;-44
2024/01/17 05:32:51;;;;;;;7.15;3.40;;;1.30;99.90;;;;;;5053548;28;20017;-47
2024/01/17 05:35:17;;;;;;;5.53;2.70;;;1.30;99.90;;;;;;5053493;28;20376;-49
2024/01/17 05:37:43;;;;;;;5.90;2.95;;;1.30;99.90;;;;;;5053230;28;20028;-49
2024/01/17 05:40:10;;;;;;;8.02;3.15;;;1.30;99.90;;;;;;5053340;28;20059;-47
2024/01/17 05:42:39;;;;;;;4.38;2.60;;;1.30;99.90;;;;;;5053334;28;20477;-51
2024/01/17 05:45:07;;;;;;;4.18;2.33;;;1.30;99.90;;;;;;5053188;28;20025;-50
2024/01/17 05:47:36;;;;;;;7.35;2.83;;;1.30;99.90;;;;;;5053172;28;20096;-48
2024/01/17 05:50:11;;;;;;;5.95;2.47;;;1.30;99.90;;;;;;5053102;28;20060;-54
2024/01/17 05:52:41;;;;;;;4.75;2.80;;;1.30;99.90;;;;;;5053462;28;20021;-48
2024/01/17 05:55:08;;;;;;;6.18;3.30;;;1.30;99.90;;;;;;5053080;28;20033;-51
2024/01/17 05:57:35;;;;;;;7.90;3.28;;;1.30;99.90;;;;;;5053138;28;20021;-48
2024/01/17 06:00:01;;;;;;;8.38;3.08;;;1.40;99.90;;;;;;5053081;28;20025;-50
2024/01/17 06:02:26;;;;;;;7.72;2.53;;;1.40;99.90;;;;;;5053002;28;20107;-51
2024/01/17 06:04:52;;;;;;;4.97;2.67;;;1.40;99.90;;;;;;5052875;28;20098;-47
2024/01/17 06:07:18;;;;;;;7.07;3.30;;;1.40;99.90;;;;;;5052960;28;20095;-49
2024/01/17 06:09:43;;;;;;;4.55;2.47;;;1.40;99.90;;;;;;5052888;28;20036;-52
2024/01/17 06:12:10;;;;;;;5.80;2.72;;;1.40;99.90;;;;;;5052828;28;20044;-45
2024/01/17 06:14:36;;;;;;;14.38;3.13;;;1.40;99.90;;;;;;5053028;28;20040;-45
2024/01/17 06:17:02;;;;;;;6.63;2.75;;;1.50;99.90;;;;;;5052726;28;20104;-46
2024/01/17 06:19:28;;;;;;;4.15;2.45;;;1.40;99.90;;;;;;5052725;28;20154;-46
2024/01/17 06:21:53;;;;;;;9.35;3.00;;;1.50;99.90;;;;;;5051378;28;20086;-48
2024/01/17 06:24:19;;;;;;;4.82;3.10;;;1.50;99.90;;;;;;5052428;28;20032;-55
2024/01/17 06:26:44;;;;;;;7.30;2.97;;;1.40;99.90;;;;;;5052604;28;20029;-47
2024/01/17 06:29:10;;;;;;;6.05;2.42;;;1.40;99.90;;;;;;5052282;28;20216;-49
2024/01/17 06:31:36;;;;;;;10.18;3.17;;;1.50;99.90;;;;;;5052331;28;20039;-50
2024/01/17 06:34:01;;;;;;;5.93;2.92;;;1.50;99.90;;;;;;5052117;28;20049;-53
2024/01/17 06:36:27;;;;;;;11.50;3.17;;;1.50;99.90;;;;;;5052342;28;20036;-47
2024/01/17 06:38:53;;;;;;;9.00;3.10;;;1.50;99.90;;;;;;5050864;28;20108;-46
2024/01/17 06:41:19;;;;;;;7.28;3.10;;;1.50;99.90;;;;;;5052049;28;20403;-46
2024/01/17 06:43:46;;;;;;;5.35;2.55;;;1.50;99.90;;;;;;5052133;28;20017;-45
2024/01/17 06:46:12;;;;;;;7.13;2.88;;;1.50;99.90;;;;;;5052337;28;20112;-50
2024/01/17 06:48:37;;;;;;;8.80;3.20;;;1.50;99.90;;;;;;5051937;28;20070;-47
2024/01/17 06:51:04;;;;;;;5.80;3.22;;;1.50;99.90;;;;;;5052060;28;20029;-50
2024/01/17 06:53:34;;;;;;;9.50;2.58;;;1.50;99.90;;;;;;5051976;28;20388;-49
2024/01/17 06:55:59;;;;;;;;;;;1.50;99.90;;;;;;5051224;28;20117;-47
2024/01/17 06:58:25;;;;;;;5.47;2.90;;;1.50;99.90;;;;;;5051956;28;19952;-51
2024/01/17 07:00:51;;;;;;;5.28;2.83;;;1.50;99.90;;;;;;5051724;28;20035;-46
2024/01/17 07:03:17;;;;;;;5.05;2.45;;;1.50;99.90;;;;;;5051820;28;20488;-47
2024/01/17 07:05:42;;;;;;;3.67;2.25;;;1.50;99.90;;;;;;5051710;28;20037;-48
2024/01/17 07:08:08;;;;;;;5.70;2.85;;;1.50;99.90;;;;;;5051741;28;20107;-51
2024/01/17 07:10:36;;;;;;;4.88;2.22;;;1.50;99.90;;;;;;5051771;28;20048;-50
2024/01/17 07:13:02;;;;;;;6.78;2.83;;;1.50;99.90;;;;;;5047206;28;20028;-53
2024/01/17 07:15:27;;;;;;;3.95;2.10;;;1.50;99.90;;;;;;5037514;28;20025;-54
2024/01/17 07:17:53;;;;;;;8.88;3.33;;;1.60;99.90;;;;;;5031733;28;20067;-50
2024/01/17 07:20:19;;;;;;;6.45;2.90;;;1.60;99.90;;;;;;5031868;28;20108;-51
2024/01/17 07:22:44;;;;;;;11.18;3.22;;;1.60;99.90;;;;;;5031457;28;20048;-51
2024/01/17 07:25:12;;;;;;;5.65;3.05;;;1.60;99.90;;;;;;5023866;28;20079;-49
2024/01/17 07:27:43;;;;;;;5.13;2.75;;;1.60;99.90;;;;;;5031326;28;20110;-53
2024/01/17 07:30:11;;;;;;;8.10;3.08;;;1.60;99.90;;;;;;5031178;28;20484;-52
2024/01/17 07:32:38;;;;;;;6.82;2.67;;;1.60;99.90;;;;;;5031492;28;20029;-50
2024/01/17 07:35:04;;;;;;;5.38;2.63;;;1.60;99.90;;;;;;5030927;28;20029;-48
2024/01/17 07:37:31;;;;;;;5.88;3.22;;;1.60;99.90;;;;;;5031222;28;20017;-46
2024/01/17 07:39:56;;;;;;;5.70;2.95;;;1.60;99.90;;;;;;5034978;28;20111;-46
2024/01/17 07:42:22;;;;;;;6.10;3.08;;;1.60;99.90;;;;;;5051328;28;20109;-46
2024/01/17 07:44:48;;;;;;;8.98;3.67;;;1.60;99.90;;;;;;5050717;28;20040;-45
2024/01/17 07:47:15;;;;;;;5.90;3.05;;;1.60;99.90;;;;;;5036285;28;20100;-49
2024/01/17 07:49:40;;;;;;;7.82;3.55;;;1.60;99.90;;;;;;5031028;28;20032;-45
2024/01/17 07:52:06;;;;;;;11.00;4.13;;;1.50;99.90;;;;;;5030928;28;20104;-49
2024/01/17 07:54:35;;;;;;;6.03;3.22;;;1.60;99.90;;;;;;5030489;28;20559;-51
2024/01/17 07:57:01;;;;;;;6.55;3.10;;;1.60;99.90;;;;;;5030908;28;20358;-49
2024/01/17 07:59:30;;;;;;;4.88;2.85;;;1.60;99.90;;;;;;5027394;28;20025;-45
2024/01/17 08:01:56;;;;;;;7.53;3.60;;;1.60;99.90;;;;;;5030332;28;20110;-47
2024/01/17 08:04:22;;;;;;;8.48;3.53;;;1.60;99.90;;;;;;5029436;28;20104;-51
2024/01/17 08:06:48;;;;;;;6.65;3.30;;;1.60;99.90;;;;;;5030912;28;20086;-48
2024/01/17 08:09:26;;;;;;;9.70;3.15;;;1.60;99.90;;;;;;5030664;28;20029;-49
2024/01/17 08:11:53;;;;;;;5.00;2.78;;;1.60;99.90;;;;;;5030472;28;20045;-50
2024/01/17 08:14:19;;;;;;;6.82;2.88;;;1.60;99.90;;;;;;5030765;28;20477;-53
2024/01/17 08:16:46;;;;;;;4.40;2.75;;;1.60;99.90;;;;;;5030893;28;20026;-46
2024/01/17 08:19:12;;;;;;;6.13;2.88;;;1.60;99.90;;;;;;5030436;28;20408;-45
2024/01/17 08:21:37;;;;;;;6.00;3.40;;;1.60;99.90;;;;;;5029259;28;20029;-47
2024/01/17 08:24:04;;;;;;;7.85;2.97;;;1.70;99.90;;;;;;5030421;28;20029;-47
2024/01/17 08:26:29;;;;;;;5.72;3.47;;;1.70;99.90;;;;;;5030284;28;20032;-53
2024/01/17 08:28:56;;;;;;;6.03;3.08;;;1.70;99.90;;;;;;5029177;28;20029;-45
2024/01/17 08:31:22;;;;;;;7.68;3.30;;;1.70;99.90;;;;;;5030167;28;20109;-44
2024/01/17 08:33:49;;;;;;;7.85;3.22;;;1.70;99.90;;;;;;5030551;28;20063;-45
2024/01/17 08:36:15;;;;;;;7.25;3.40;;;1.70;99.90;;;;;;5030172;28;20042;-47
2024/01/17 08:38:43;;;;;;;7.40;3.60;;;1.70;99.90;;;;;;5030359;28;20030;-44
2024/01/17 08:41:09;;;;;;;10.07;3.75;;;1.80;99.90;;;;;;5044155;28;20029;-50
2024/01/17 08:43:35;;;;;;;6.00;3.45;;;1.80;99.90;;;;;;5050276;28;20701;-47
2024/01/17 08:46:02;;;;;;;7.63;3.63;;;1.80;99.90;;;;;;5035370;28;20083;-51
2024/01/17 08:48:28;;;;;;;6.10;3.33;;;1.80;99.90;;;;;;5022022;28;20417;-53
2024/01/17 08:50:54;;;;;;;6.22;2.92;;;1.90;99.90;;;;;;5022064;28;20034;-46
2024/01/17 08:53:20;;;;;;;8.05;3.80;;;1.90;99.90;;;;;;5026718;28;20030;-46
2024/01/17 08:55:47;;;;;;;10.38;3.53;;;1.90;99.90;;;;;;5030812;28;20044;-51
2024/01/17 08:58:12;;;;;;;8.60;3.60;;;1.90;99.90;;;;;;5026245;28;20151;-47
2024/01/17 09:00:38;;;;;;;7.03;3.45;;;2.00;99.90;;;;;;5034357;28;20029;-52
2024/01/17 09:03:04;;;;;;;6.07;3.15;;;2.00;99.90;;;;;;5026438;28;20160;-49
2024/01/17 09:05:30;;;;;;;7.70;3.75;;;2.10;99.90;;;;;;5033983;28;20022;-50
2024/01/17 09:07:57;;;;;;;8.38;3.58;;;2.10;99.90;;;;;;5034029;28;20446;-51
2024/01/17 09:10:23;;;;;;;9.95;3.83;;;2.10;99.90;;;;;;5034145;28;20025;-54
2024/01/17 09:12:51;;;;;;;8.25;3.85;;;2.20;99.90;;;;;;5034405;28;20033;-50
2024/01/17 09:15:17;;;;;;;8.45;4.70;;;2.20;99.90;;;;;;5033591;28;20699;-52
2024/01/17 09:17:43;;;;;;;12.70;4.55;;;2.20;99.90;;;;;;5034228;28;20017;-46
2024/01/17 09:20:09;;;;;;;10.32;4.45;;;2.30;99.90;;;;;;5033994;28;20389;-51
2024/01/17 09:22:35;;;;;;;10.57;4.70;;;2.30;99.90;;;;;;5033791;28;20029;-55
2024/01/17 09:25:01;;;;;;;7.90;4.10;;;2.30;99.90;;;;;;5034194;28;20021;-48
2024/01/17 09:27:30;;;;;;;8.60;4.40;;;2.40;99.90;;;;;;5032439;28;20508;-48
2024/01/17 09:29:56;;;;;;;10.45;4.32;;;2.40;99.90;;;;;;5033663;28;20026;-46
2024/01/17 09:32:22;;;;;;;10.05;3.92;;;2.40;99.90;;;;;;5033443;28;20048;-48
2024/01/17 09:34:47;;;;;;;9.05;4.15;;;2.40;99.90;;;;;;5033025;28;20073;-51
2024/01/17 09:37:14;;;;;;;9.43;4.90;;;2.50;99.90;;;;;;5032533;28;20025;-50
2024/01/17 09:39:39;;;;;;;9.55;4.93;;;2.50;99.90;;;;;;5035265;28;20025;-46
2024/01/17 09:42:06;;;;;;;9.60;4.70;;;2.60;99.90;;;;;;5053742;28;20117;-45
2024/01/17 09:44:33;;;;;;;8.82;4.90;;;2.60;99.90;;;;;;5053797;28;20063;-45
2024/01/17 09:46:59;;;;;;;10.45;4.93;;;2.60;99.90;;;;;;5053340;28;20029;-46
2024/01/17 09:49:26;;;;;;;8.95;4.90;;;2.70;99.90;;;;;;5053288;28;20032;-45
2024/01/17 09:51:53;;;;;;;9.52;4.82;;;2.70;99.90;;;;;;5053285;28;20056;-45
2024/01/17 09:54:20;;;;;;;10.32;4.97;;;2.70;99.90;;;;;;5053373;28;20485;-48
2024/01/17 09:56:46;;;;;;;9.20;5.00;;;2.80;99.90;;;;;;5053112;28;20029;-45
2024/01/17 09:59:21;;;;;;;10.00;4.88;;;2.80;99.90;;;;;;5053293;28;20330;-45
2024/01/17 10:01:47;;;;;;;9.00;5.03;;;2.90;99.90;;;;;;5053050;28;20590;-46
2024/01/17 10:04:14;;;;;;;10.65;4.43;;;2.90;99.90;;;;;;5053112;28;20028;-45
2024/01/17 10:06:44;;;;;;;10.27;4.93;;;2.90;99.90;;;;;;5052712;28;20025;-45
2024/01/17 10:09:10;;;;;;;14.13;6.05;;;2.90;99.90;;;;;;5053222;28;20025;-45
2024/01/17 10:11:36;;;;;;;7.93;4.70;;;2.90;99.90;;;;;;5053182;28;20037;-45
2024/01/17 10:14:02;;;;;;;12.90;5.43;;;3.00;99.90;;;;;;5052906;28;20537;-45
2024/01/17 10:16:28;;;;;;;11.23;4.90;;;3.00;99.90;;;;;;5053133;28;20040;-45
2024/01/17 10:18:54;;;;;;;9.88;5.40;;;3.00;99.90;;;;;;5044682;28;20026;-45
2024/01/17 10:21:21;;;;;;;8.65;5.30;;;3.10;99.90;;;;;;5035213;28;20039;-48
2024/01/17 10:23:47;;;;;;;9.68;5.43;;;3.10;99.90;;;;;;5030791;28;20021;-45
2024/01/17 10:26:13;;;;;;;12.02;5.80;;;3.10;99.90;;;;;;5031068;28;20024;-44
2024/01/17 10:28:39;;;;;;;9.40;5.25;;;3.10;99.90;;;;;;5020755;28;20034;-44
2024/01/17 10:31:05;;;;;;;10.52;5.53;;;3.20;99.90;;;;;;5018848;28;20481;-48
2024/01/17 10:33:34;;;;;;;12.75;5.93;;;3.20;99.90;;;;;;5032668;28;20440;-45
2024/01/17 10:35:59;;;;;;;17.23;6.45;;;3.30;99.90;;;;;;5032418;28;20429;-46
2024/01/17 10:38:32;;;;;;;13.73;6.22;;;3.30;99.90;;;;;;5032479;28;20468;-44
2024/01/17 10:41:08;;;;;;;12.10;5.60;;;3.30;99.90;;;;;;5044605;28;20535;-47
2024/01/17 10:43:54;;;;;;;12.75;6.07;;;3.50;99.90;;;;;;5048693;28;20029;-46
2024/01/17 10:46:20;;;;;;;11.48;6.13;;;3.50;99.90;;;;;;5035266;28;20037;-46
2024/01/17 10:48:46;;;;;;;11.02;5.38;;;3.60;99.90;;;;;;5031981;28;20032;-46
2024/01/17 10:51:20;;;;;;;10.77;5.82;;;3.60;99.90;;;;;;5032202;28;20036;-46
2024/01/17 10:53:57;;;;;;;14.93;6.05;;;3.70;99.90;;;;;;5031873;28;20048;-47
2024/01/17 10:56:23;;;;;;;10.07;5.78;;;3.80;99.90;;;;;;5032044;28;20057;-46
2024/01/17 10:58:55;;;;;;;13.40;6.50;;;3.90;99.90;;;;;;5032166;28;20036;-46
2024/01/17 11:01:35;;;;;;;14.57;6.07;;;3.80;99.90;;;;;;5031967;28;20087;-45
2024/01/17 11:04:38;;;;;;;8.55;5.00;;;3.80;99.90;;;;;;5031921;28;20021;-42
2024/01/17 11:07:05;;;;;;;12.98;5.35;;;3.90;99.90;;;;;;5030363;28;20108;-42
2024/01/17 11:09:33;;;;;;;17.80;6.20;;;4.00;99.90;;;;;;5030315;28;20124;-42
2024/01/17 11:12:01;;;;;;;9.45;5.82;;;4.00;99.90;;;;;;5029858;28;20030;-45
2024/01/17 11:14:30;;;;;;;13.35;6.53;;;4.10;99.90;;;;;;5031537;28;20083;-45
2024/01/17 11:17:03;;;;;;;12.20;6.50;;;4.10;99.90;;;;;;5031582;28;20025;-45
2024/01/17 11:19:32;;;;;;;16.50;5.75;;;4.10;99.90;;;;;;5030930;28;20048;-45
2024/01/17 11:22:02;;;;;;;15.45;6.22;;;4.00;99.90;;;;;;5031657;28;20067;-49
2024/01/17 11:24:50;;;;;;;10.07;5.75;;;4.00;99.90;;;;;;5031620;28;20060;-46
2024/01/17 11:27:27;;;;;;;10.68;5.45;;;3.90;99.90;;;;;;5031681;28;20025;-49
2024/01/17 11:30:08;;;;;;;11.57;5.45;;;3.80;99.90;;;;;;5027672;28;20109;-44
2024/01/17 11:32:52;;;;;;;10.20;5.53;;;3.90;99.90;;;;;;5028363;28;20083;-46
2024/01/17 11:35:43;;;;;;;12.90;5.88;;;3.90;99.90;;;;;;5022641;28;20038;-44
2024/01/17 11:38:25;;;;;;;12.73;4.88;;;3.90;99.90;;;;;;5027258;28;20021;-49
2024/01/17 11:40:51;;;;;;;8.55;4.68;;;3.90;99.90;;;;;;5034666;28;20026;-46
2024/01/17 11:43:17;;;;;;;8.45;4.10;;;4.00;99.90;;;;;;5034472;28;20071;-45
2024/01/17 11:45:44;;;;;;;9.40;4.03;;;4.10;99.90;;;;;;5019502;28;20051;-43
2024/01/17 11:48:25;;;;;;;12.50;4.57;;;4.20;99.90;;;;;;5031124;28;20071;-45
2024/01/17 11:51:04;;;;;;;7.50;4.22;;;4.20;99.90;;;;;;5020898;28;20116;-42
2024/01/17 11:53:31;;;;;;;10.45;4.95;;;4.30;99.90;;;;;;5031191;28;20028;-45
2024/01/17 11:56:00;;;;;;;10.07;4.45;;;4.40;99.90;;;;;;5030931;28;20151;-45
2024/01/17 11:58:39;;;;;;;9.43;4.93;;;4.40;99.90;;;;;;5030996;28;20057;-43
2024/01/17 12:01:06;;;;;;;12.07;4.55;;;4.40;99.90;;;;;;5020702;28;20086;-44
2024/01/17 12:03:33;;;;;;;11.67;4.37;;;4.50;99.90;;;;;;5030840;28;20060;-46
2024/01/17 12:06:01;;;;;;;8.38;4.68;;;4.60;99.90;;;;;;5030672;28;20025;-46
2024/01/17 12:08:27;;;;;;;10.73;4.47;;;4.70;99.90;;;;;;5030727;28;20076;-45
2024/01/17 12:10:56;;;;;;;12.07;4.43;;;4.70;99.90;;;;;;5030623;28;20067;-43
2024/01/17 12:13:23;;;;;;;9.85;4.97;;;4.80;99.90;;;;;;5030735;28;20503;-44
2024/01/17 12:15:54;;;;;;;16.33;5.85;;;5.00;99.90;;;;;;5030321;28;20459;-45
2024/01/17 12:18:29;;;;;;;10.45;5.15;;;4.90;99.90;;;;;;5030613;28;20017;-46
2024/01/17 12:21:03;;;;;;;12.43;4.90;;;5.00;99.90;;;;;;5030473;28;20480;-44
2024/01/17 12:23:37;;;;;;;12.55;6.03;;;5.10;99.90;;;;;;5030448;28;20108;-47
2024/01/17 12:26:06;;;;;;;10.30;5.40;;;5.10;99.90;;;;;;5039370;28;20030;-48
2024/01/17 12:28:38;;;;;;;10.93;5.32;;;5.10;99.90;;;;;;5030537;28;20027;-46
2024/01/17 12:31:06;;;;;;;11.95;4.95;;;5.00;99.90;;;;;;5029317;28;20018;-43
2024/01/17 12:33:38;;;;;;;10.23;5.05;;;5.10;99.90;;;;;;5025389;28;20069;-44
2024/01/17 12:36:06;;;;;;;7.45;4.40;;;5.00;99.90;;;;;;5020613;28;20041;-45
2024/01/17 12:38:36;;;;;;;8.60;4.05;;;5.10;99.90;;;;;;5027039;28;20113;-46
2024/01/17 12:41:04;;;;;;;10.32;4.65;;;5.00;99.90;;;;;;5042910;28;20032;-47
2024/01/17 12:43:32;;;;;;;9.57;3.60;;;5.10;99.90;;;;;;5029816;28;20026;-51
2024/01/17 12:46:08;;;;;;;10.45;3.47;;;5.20;99.90;;;;;;5028880;28;20531;-52
2024/01/17 12:48:38;;;;;;;7.93;3.05;;;5.20;99.90;;;;;;5030146;28;20044;-53
2024/01/17 12:51:08;;;;;;;10.35;3.28;;;5.20;99.90;;;;;;5030369;28;20028;-51
2024/01/17 12:53:41;;;;;;;8.85;3.15;;;5.20;99.90;;;;;;5030210;28;20033;-52
2024/01/17 12:56:14;;;;;;;10.27;2.92;;;5.20;99.90;;;;;;5030405;28;20307;-51